Terminal Aerodrome Forecast
Issued by NWS

Home | Current Version | Previous Version | Text Only | Print | Product List | Glossary On
Versions: 1 2 3 4 5 6 7 8 9 10 11 12 13 14 15 16 17 18 19 20 21 22 23 24 25 26 27 28 29 30 31 32 33 34 35
000
FTUS45 KGJT 191739
TAFVEL
TAF
KVEL 191739Z 1918/2018 06009KT 1/4SM SN FZFG VV007
     FM192000 23013G22KT 3SM -SHSN SCT025 OVC040
     FM192200 26014G27KT 4SM -SHSN BKN040
     FM200000 03014G26KT P6SM VCSH BKN035 OVC060
     FM200300 04013KT 3SM -SHSN BKN040 OVC060
     FM200500 09006KT P6SM VCSH OVC040
     FM200700 11004KT P6SM VCSH BKN030 OVC035
     FM201200 VRB03KT P6SM BKN030=

USA.gov is the U.S. government's official web portal to all federal, state and local government web resources and services.